createdAt,value
2022-09-30T00:00:24.355Z,11.55
2022-09-30T00:03:31.777Z,11.61
2022-09-30T00:06:39.038Z,11.66
2022-09-30T00:09:48.092Z,11.63
2022-09-30T00:12:54.376Z,11.60
2022-09-30T00:16:03.397Z,11.64
2022-09-30T00:19:10.335Z,11.69
2022-09-30T00:22:16.405Z,11.69
2022-09-30T00:25:21.019Z,11.72
2022-09-30T00:28:30.011Z,11.61
2022-09-30T00:31:40.625Z,11.57
2022-09-30T00:34:53.416Z,11.55
2022-09-30T00:38:00.236Z,11.55
2022-09-30T00:41:08.559Z,11.53
2022-09-30T00:44:51.597Z,11.56
2022-09-30T00:48:13.755Z,11.56
2022-09-30T00:51:29.949Z,11.55
2022-09-30T00:54:38.593Z,11.52
2022-09-30T00:57:45.022Z,11.55
2022-09-30T01:00:57.296Z,11.55
2022-09-30T01:04:11.262Z,11.68
2022-09-30T01:07:17.766Z,11.71
2022-09-30T01:10:26.328Z,11.83
2022-09-30T01:13:35.679Z,11.78
2022-09-30T01:16:58.655Z,11.74
2022-09-30T01:20:27.606Z,11.80
2022-09-30T01:23:58.926Z,11.70
2022-09-30T01:27:33.475Z,11.67
2022-09-30T01:31:01.026Z,11.73
2022-09-30T01:34:18.700Z,11.69
2022-09-30T01:37:44.294Z,11.67
2022-09-30T01:41:09.256Z,11.81
2022-09-30T01:44:30.511Z,11.63
2022-09-30T01:47:57.515Z,11.59
2022-09-30T01:51:14.297Z,11.57
2022-09-30T01:54:38.756Z,11.61
2022-09-30T01:57:54.915Z,11.61
2022-09-30T02:01:09.379Z,11.69
2022-09-30T02:04:22.343Z,11.71
2022-09-30T02:07:38.166Z,11.70
2022-09-30T02:10:50.549Z,11.68
2022-09-30T02:14:04.780Z,11.65
2022-09-30T02:17:21.394Z,11.63
2022-09-30T02:20:38.233Z,11.66
2022-09-30T02:23:50.178Z,11.67
2022-09-30T02:27:02.529Z,11.66
2022-09-30T02:30:12.502Z,11.71
2022-09-30T02:33:26.480Z,11.69
2022-09-30T02:36:43.720Z,11.70
2022-09-30T02:40:08.388Z,11.71
2022-09-30T02:43:20.122Z,11.76
2022-09-30T02:46:45.753Z,11.78
2022-09-30T02:50:02.898Z,11.89
2022-09-30T02:53:38.918Z,11.79
2022-09-30T02:56:49.509Z,11.77
2022-09-30T02:59:57.614Z,11.76
2022-09-30T03:03:12.241Z,11.73
2022-09-30T03:06:18.366Z,11.74
2022-09-30T03:09:30.167Z,11.73
2022-09-30T03:13:02.656Z,11.75
2022-09-30T03:16:17.454Z,11.76
2022-09-30T03:19:31.769Z,11.79
2022-09-30T03:22:44.834Z,11.81
2022-09-30T03:26:10.269Z,11.82
2022-09-30T03:29:17.824Z,11.85
2022-09-30T03:32:45.336Z,11.87
2022-09-30T03:36:07.681Z,11.91
2022-09-30T03:39:18.983Z,11.90
2022-09-30T03:42:34.819Z,11.93
2022-09-30T03:45:54.890Z,11.94
2022-09-30T03:49:07.205Z,11.98
2022-09-30T03:52:15.999Z,12.06
2022-09-30T03:55:24.268Z,12.02
2022-09-30T03:58:32.155Z,12.02
2022-09-30T04:01:41.097Z,12.03
2022-09-30T04:04:49.591Z,12.12
2022-09-30T04:07:57.346Z,12.09
2022-09-30T04:11:07.638Z,12.10
2022-09-30T04:14:15.051Z,12.10
2022-09-30T04:17:20.882Z,12.13
2022-09-30T04:20:29.628Z,12.12
2022-09-30T04:23:37.315Z,12.12
2022-09-30T04:26:43.788Z,12.14
2022-09-30T04:29:51.855Z,12.14
2022-09-30T04:32:56.881Z,12.30
2022-09-30T04:36:06.791Z,12.23
2022-09-30T04:39:12.411Z,12.22
2022-09-30T04:42:19.577Z,12.20
2022-09-30T04:45:26.107Z,12.24
2022-09-30T04:48:32.741Z,12.28
2022-09-30T04:51:38.227Z,12.28
2022-09-30T04:54:44.330Z,12.29
2022-09-30T04:57:52.160Z,12.33
2022-09-30T05:01:02.436Z,12.35
2022-09-30T05:04:06.815Z,12.37
2022-09-30T05:07:13.460Z,12.39
2022-09-30T05:10:17.569Z,12.44
2022-09-30T05:13:21.913Z,12.50
2022-09-30T05:16:29.224Z,12.50
2022-09-30T05:19:35.861Z,12.52
2022-09-30T05:22:39.807Z,12.56
2022-09-30T05:25:45.928Z,12.54
2022-09-30T05:28:52.724Z,12.66
2022-09-30T05:31:58.879Z,12.76
2022-09-30T05:35:04.106Z,12.79
2022-09-30T05:38:11.460Z,12.88
2022-09-30T05:41:17.094Z,12.89
2022-09-30T05:44:23.306Z,12.81
2022-09-30T05:47:27.813Z,12.87
2022-09-30T05:50:33.761Z,12.93
2022-09-30T05:53:42.263Z,13.03
2022-09-30T05:56:46.835Z,13.00
2022-09-30T05:59:51.197Z,12.98
2022-09-30T06:02:56.700Z,12.91
2022-09-30T06:06:01.084Z,12.93
2022-09-30T06:09:04.221Z,12.95
2022-09-30T06:12:07.829Z,12.90
2022-09-30T06:15:10.722Z,12.94
2022-09-30T06:18:17.660Z,13.05
2022-09-30T06:21:23.190Z,13.06
2022-09-30T06:24:28.341Z,13.06
2022-09-30T06:27:33.450Z,13.07
2022-09-30T06:30:37.557Z,13.03
2022-09-30T06:33:44.207Z,12.96
2022-09-30T06:36:49.769Z,12.97
2022-09-30T06:39:53.582Z,13.04
2022-09-30T06:43:02.306Z,13.08
2022-09-30T06:46:15.450Z,13.19
2022-09-30T06:49:22.204Z,13.20
2022-09-30T06:52:27.731Z,13.21
2022-09-30T06:55:33.619Z,13.26
2022-09-30T06:58:40.111Z,13.33
2022-09-30T07:01:45.420Z,13.31
2022-09-30T07:04:48.606Z,13.30
2022-09-30T07:07:53.236Z,13.29
2022-09-30T07:10:57.666Z,13.32
2022-09-30T07:14:01.473Z,13.35
2022-09-30T07:17:07.349Z,13.40
2022-09-30T07:20:12.103Z,13.41
2022-09-30T07:23:16.204Z,13.41
2022-09-30T07:26:23.152Z,13.44
2022-09-30T07:29:27.067Z,13.43
2022-09-30T07:32:32.987Z,13.44
2022-09-30T07:35:36.581Z,13.45
2022-09-30T07:38:42.473Z,13.46
2022-09-30T07:41:45.850Z,13.50
2022-09-30T07:44:53.051Z,13.46
2022-09-30T07:47:57.595Z,13.56
2022-09-30T07:51:02.236Z,13.52
2022-09-30T07:54:08.466Z,13.48
2022-09-30T07:57:13.118Z,13.50
2022-09-30T08:00:41.143Z,13.57
2022-09-30T08:03:44.604Z,13.54
2022-09-30T08:06:54.131Z,13.53
2022-09-30T08:09:59.818Z,13.65
2022-09-30T08:13:06.319Z,13.71
2022-09-30T08:16:12.905Z,13.86
2022-09-30T08:19:22.119Z,13.90
2022-09-30T08:22:26.775Z,13.92
2022-09-30T08:25:29.983Z,13.90
2022-09-30T08:28:33.916Z,13.99
2022-09-30T08:31:38.617Z,14.05
2022-09-30T08:34:42.738Z,14.00
2022-09-30T08:37:45.901Z,14.02
2022-09-30T08:41:09.929Z,14.06
2022-09-30T08:44:38.913Z,14.00
2022-09-30T08:51:43.959Z,14.29
2022-09-30T08:54:51.180Z,14.39
2022-09-30T08:57:56.758Z,14.29
2022-09-30T09:01:26.010Z,14.31
2022-09-30T09:04:30.323Z,14.13
2022-09-30T09:07:47.020Z,14.13
2022-09-30T09:11:17.507Z,14.06
2022-09-30T09:14:44.479Z,14.07
2022-09-30T09:18:10.942Z,14.10
2022-09-30T09:21:21.065Z,14.22
2022-09-30T09:24:29.927Z,14.34
2022-09-30T09:27:56.270Z,14.72
2022-09-30T09:31:00.650Z,14.94
2022-09-30T09:34:15.628Z,15.07
2022-09-30T09:38:04.094Z,15.13
2022-09-30T09:41:35.996Z,15.48
2022-09-30T09:44:55.358Z,15.73
2022-09-30T09:47:59.744Z,15.57
2022-09-30T09:51:24.195Z,15.36
2022-09-30T09:54:30.491Z,15.44
2022-09-30T09:57:34.584Z,15.78
2022-09-30T10:01:02.545Z,15.97
2022-09-30T10:04:12.068Z,16.05
2022-09-30T10:07:15.940Z,16.56
2022-09-30T10:10:23.794Z,16.85
2022-09-30T10:13:42.845Z,17.13
2022-09-30T10:16:48.625Z,17.12
2022-09-30T10:19:56.054Z,17.28
2022-09-30T10:23:09.740Z,16.80
2022-09-30T10:26:14.473Z,16.82
2022-09-30T10:29:33.575Z,16.57
2022-09-30T10:32:37.467Z,16.48
2022-09-30T10:36:15.624Z,16.45
2022-09-30T10:39:32.481Z,16.34
2022-09-30T10:42:41.528Z,16.28
2022-09-30T10:46:01.267Z,16.20
2022-09-30T10:49:32.921Z,16.30
2022-09-30T10:52:44.741Z,16.07
2022-09-30T10:55:49.253Z,16.28
2022-09-30T10:58:56.739Z,16.40
2022-09-30T11:02:41.187Z,16.49
2022-09-30T11:05:48.388Z,17.16
2022-09-30T11:08:58.656Z,17.55
2022-09-30T11:12:11.305Z,17.77
2022-09-30T11:15:54.378Z,17.71
2022-09-30T11:19:10.277Z,17.35
2022-09-30T11:22:20.600Z,17.32
2022-09-30T11:25:51.813Z,16.85
2022-09-30T11:29:22.473Z,16.78
2022-09-30T11:32:40.820Z,16.94
2022-09-30T11:36:22.076Z,17.17
2022-09-30T11:39:44.118Z,17.32
2022-09-30T11:42:59.846Z,17.31
2022-09-30T11:46:17.281Z,17.13
2022-09-30T11:49:24.371Z,17.07
2022-09-30T11:52:42.271Z,16.76
2022-09-30T11:55:48.286Z,16.53
2022-09-30T11:58:57.786Z,16.95
2022-09-30T12:02:04.501Z,18.91
2022-09-30T12:05:14.428Z,19.74
2022-09-30T12:08:28.145Z,18.99
2022-09-30T12:11:43.266Z,20.45
2022-09-30T12:14:51.783Z,23.45
2022-09-30T12:18:06.852Z,23.29
2022-09-30T12:21:24.049Z,22.27
2022-09-30T12:24:37.639Z,24.57
2022-09-30T12:27:47.654Z,26.39
2022-09-30T12:31:07.720Z,26.85
2022-09-30T12:34:33.276Z,26.69
2022-09-30T12:37:38.225Z,27.99
2022-09-30T12:41:13.419Z,29.64
2022-09-30T12:44:46.396Z,30.62
2022-09-30T12:47:56.381Z,28.06
2022-09-30T12:51:01.978Z,28.48
2022-09-30T12:54:25.962Z,29.98
2022-09-30T12:57:34.365Z,30.69
2022-09-30T13:00:38.887Z,28.58
2022-09-30T13:04:06.949Z,26.68
2022-09-30T13:07:23.651Z,25.91
2022-09-30T13:10:34.011Z,23.75
2022-09-30T13:14:00.686Z,21.80
2022-09-30T13:17:07.824Z,19.66
2022-09-30T13:20:48.242Z,20.16
2022-09-30T13:23:56.350Z,20.23
2022-09-30T13:27:15.707Z,19.81
2022-09-30T13:30:19.454Z,19.53
2022-09-30T13:33:40.792Z,19.82
2022-09-30T13:36:50.996Z,19.89
2022-09-30T13:39:56.879Z,19.27
2022-09-30T13:43:04.659Z,20.35
2022-09-30T13:46:17.501Z,20.34
2022-09-30T13:49:47.151Z,21.18
2022-09-30T13:52:57.527Z,20.74
2022-09-30T13:56:08.387Z,21.08
2022-09-30T13:59:33.237Z,23.17
2022-09-30T14:02:41.133Z,22.30
2022-09-30T14:06:13.460Z,22.18
2022-09-30T14:09:42.353Z,20.67
2022-09-30T14:13:28.474Z,19.19
2022-09-30T14:16:53.489Z,18.80
2022-09-30T14:20:04.794Z,18.96
2022-09-30T14:23:17.876Z,18.24
2022-09-30T14:26:48.715Z,17.50
2022-09-30T14:30:14.769Z,17.21
2022-09-30T14:33:26.591Z,17.14
2022-09-30T14:36:31.908Z,16.98
2022-09-30T14:39:38.133Z,16.99
2022-09-30T14:42:46.031Z,16.89
2022-09-30T14:46:02.269Z,16.77
2022-09-30T14:49:14.868Z,16.65
2022-09-30T14:52:44.024Z,16.61
2022-09-30T14:55:50.361Z,16.68
2022-09-30T14:58:58.316Z,16.74
2022-09-30T15:02:19.368Z,16.60
2022-09-30T15:05:25.310Z,16.69
2022-09-30T15:08:29.173Z,16.79
2022-09-30T15:11:39.818Z,16.68
2022-09-30T15:14:50.141Z,16.61
2022-09-30T15:17:58.865Z,16.56
2022-09-30T15:21:16.435Z,16.27
2022-09-30T15:24:26.042Z,16.17
2022-09-30T15:27:34.326Z,16.08
2022-09-30T15:30:40.297Z,16.01
2022-09-30T15:33:47.724Z,15.95
2022-09-30T15:37:05.117Z,15.81
2022-09-30T15:40:35.777Z,15.70
2022-09-30T15:43:52.448Z,15.62
2022-09-30T15:47:07.932Z,15.52
2022-09-30T15:50:42.336Z,15.59
2022-09-30T15:53:48.703Z,15.34
2022-09-30T15:56:53.777Z,15.25
2022-09-30T16:00:01.034Z,15.10
2022-09-30T16:03:21.106Z,14.96
2022-09-30T16:06:45.490Z,14.84
2022-09-30T16:09:51.732Z,14.85
2022-09-30T16:12:58.007Z,14.66
2022-09-30T16:16:05.746Z,14.59
2022-09-30T16:19:19.874Z,14.52
2022-09-30T16:22:45.449Z,14.65
2022-09-30T16:26:10.173Z,14.60
2022-09-30T16:29:18.139Z,14.54
2022-09-30T16:32:23.667Z,14.38
2022-09-30T16:35:29.453Z,14.30
2022-09-30T16:38:36.179Z,14.22
2022-09-30T16:41:42.246Z,14.21
2022-09-30T16:44:51.351Z,14.19
2022-09-30T16:47:58.976Z,14.22
2022-09-30T16:51:16.286Z,14.28
2022-09-30T16:54:21.375Z,14.34
2022-09-30T16:57:26.993Z,14.30
2022-09-30T17:00:32.720Z,14.28
2022-09-30T17:03:38.514Z,14.28
2022-09-30T17:06:44.043Z,14.23
2022-09-30T17:09:49.806Z,14.23
2022-09-30T17:12:53.030Z,14.19
2022-09-30T17:15:57.100Z,14.20
2022-09-30T17:19:01.825Z,14.18
2022-09-30T17:22:06.024Z,14.13
2022-09-30T17:25:10.560Z,14.06
2022-09-30T17:28:15.033Z,14.00
2022-09-30T17:31:19.636Z,13.94
2022-09-30T17:34:24.905Z,13.83
2022-09-30T17:37:31.863Z,13.75
2022-09-30T17:40:55.165Z,13.73
2022-09-30T17:44:02.791Z,13.66
2022-09-30T17:47:09.278Z,13.53
2022-09-30T17:50:13.569Z,13.47
2022-09-30T17:53:20.029Z,13.37
2022-09-30T17:56:26.483Z,13.25
2022-09-30T17:59:32.005Z,13.14
2022-09-30T18:02:37.144Z,13.04
2022-09-30T18:05:45.299Z,12.98
2022-09-30T18:08:50.133Z,12.91
2022-09-30T18:11:55.175Z,12.85
2022-09-30T18:15:00.575Z,12.79
2022-09-30T18:18:05.357Z,12.70
2022-09-30T18:21:12.918Z,12.63
2022-09-30T18:24:17.262Z,12.61
2022-09-30T18:27:23.394Z,12.56
2022-09-30T18:30:29.598Z,12.55
2022-09-30T18:33:32.766Z,12.54
2022-09-30T18:36:37.635Z,12.71
2022-09-30T18:39:42.794Z,13.00
2022-09-30T18:42:52.630Z,13.00
2022-09-30T18:46:03.079Z,12.98
2022-09-30T18:49:11.631Z,12.92
2022-09-30T18:52:18.250Z,13.02
2022-09-30T18:55:28.345Z,13.17
2022-09-30T18:58:38.802Z,13.17
2022-09-30T19:01:48.050Z,13.24
2022-09-30T19:04:57.998Z,13.21
2022-09-30T19:08:07.556Z,13.11
2022-09-30T19:11:16.112Z,13.15
2022-09-30T19:14:25.663Z,13.19
2022-09-30T19:17:34.278Z,13.19
2022-09-30T19:20:41.579Z,13.20
2022-09-30T19:23:50.132Z,13.19
2022-09-30T19:26:58.763Z,13.17
2022-09-30T19:30:09.767Z,13.15
2022-09-30T19:33:17.620Z,13.16
2022-09-30T19:36:25.298Z,13.27
2022-09-30T19:39:42.704Z,13.24
2022-09-30T19:42:51.635Z,13.26
2022-09-30T19:45:59.758Z,13.31
2022-09-30T19:49:06.667Z,13.32
2022-09-30T19:52:21.116Z,13.37
2022-09-30T19:55:31.127Z,13.35
2022-09-30T19:58:41.934Z,13.31
2022-09-30T20:01:49.841Z,13.39
2022-09-30T20:04:57.701Z,13.33
2022-09-30T20:08:03.562Z,13.21
2022-09-30T20:11:16.147Z,13.19
2022-09-30T20:14:44.536Z,13.24
2022-09-30T20:17:51.166Z,13.27
2022-09-30T20:20:59.269Z,13.08
2022-09-30T20:24:04.560Z,12.97
2022-09-30T20:27:14.140Z,12.90
2022-09-30T20:30:20.081Z,12.84
2022-09-30T20:33:27.848Z,12.93
2022-09-30T20:36:36.512Z,12.89
2022-09-30T20:39:42.961Z,12.89
2022-09-30T20:42:50.909Z,12.86
2022-09-30T20:46:01.033Z,12.82
2022-09-30T20:49:10.171Z,12.79
2022-09-30T20:52:15.883Z,12.79
2022-09-30T20:55:20.844Z,12.81
2022-09-30T20:58:24.734Z,12.83
2022-09-30T21:01:32.637Z,12.82
2022-09-30T21:04:37.849Z,12.82
2022-09-30T21:07:45.559Z,12.77
2022-09-30T21:10:52.860Z,12.75
2022-09-30T21:14:01.004Z,12.73
2022-09-30T21:17:11.078Z,12.75
2022-09-30T21:20:18.853Z,12.75
2022-09-30T21:23:28.483Z,12.77
2022-09-30T21:26:37.350Z,12.76
2022-09-30T21:29:45.456Z,12.77
2022-09-30T21:32:54.608Z,12.82
2022-09-30T21:36:02.131Z,12.79
2022-09-30T21:39:10.582Z,12.75
2022-09-30T21:42:17.055Z,12.70
2022-09-30T21:45:23.174Z,12.71
2022-09-30T21:48:29.558Z,12.66
2022-09-30T21:51:37.782Z,12.65
2022-09-30T21:54:45.883Z,12.72
2022-09-30T21:57:57.631Z,12.67
2022-09-30T22:01:07.117Z,12.68
2022-09-30T22:04:15.224Z,12.73
2022-09-30T22:07:23.925Z,12.70
2022-09-30T22:10:34.215Z,12.66
2022-09-30T22:13:45.413Z,12.65
2022-09-30T22:16:57.678Z,12.76
2022-09-30T22:20:04.120Z,12.72
2022-09-30T22:23:14.150Z,12.71
2022-09-30T22:26:25.231Z,12.73
2022-09-30T22:29:37.710Z,12.76
2022-09-30T22:32:44.889Z,12.80
2022-09-30T22:36:24.333Z,12.84
2022-09-30T22:39:32.148Z,12.81
2022-09-30T22:42:41.818Z,12.68
2022-09-30T22:45:51.846Z,12.63
2022-09-30T22:49:00.921Z,12.63
2022-09-30T22:52:09.658Z,12.69
2022-09-30T22:55:16.514Z,12.69
2022-09-30T22:58:26.714Z,12.69
2022-09-30T23:01:35.021Z,12.68
2022-09-30T23:04:46.044Z,12.66
2022-09-30T23:07:54.450Z,12.73
2022-09-30T23:11:02.190Z,12.72
2022-09-30T23:14:12.202Z,12.72
2022-09-30T23:17:18.148Z,12.74
2022-09-30T23:20:27.624Z,12.69
2022-09-30T23:23:35.198Z,12.72
2022-09-30T23:26:44.807Z,12.76
2022-09-30T23:29:56.363Z,12.76
2022-09-30T23:33:03.273Z,12.75
2022-09-30T23:36:12.259Z,12.78
2022-09-30T23:39:20.995Z,12.80
2022-09-30T23:42:29.719Z,12.78
2022-09-30T23:45:36.867Z,12.79
2022-09-30T23:48:46.793Z,12.80
2022-09-30T23:51:58.076Z,12.84
2022-09-30T23:55:05.104Z,12.80
2022-09-30T23:58:12.320Z,12.77
